Allen, Indiana
Current Conditions -  °F | °C
As of 7:35 AM on Saturday 25 Oct 2014 (Local Time) from KGWB Reporting Station
Scattered Clouds Scattered Clouds  
Wind Chill: 54°   Ceiling: Unl
Heat Index: 54°   Visibility: 7mi
Dew Point: 50°   Wind: 6mph
Humidity: 88%   Direction: 230°SW
Pressure: 29.92"   Gusts: NA
Location:  41.4608°N, 85.2531°W
Report Text: KGWB 251135Z AUTO 23005KT 7SM SCT031 SCT045 12/10 A2992 RMK AO2
Loading
Personal Weather Stations






























Interactive Weather Map New forecast layout! Learn more

10-Day Weather Forecast

Advertisements
Track Severe Weather on mobile